Alpena, MI

9:42 AM EST on December 10, 2016 (GMT -0500)
Lincoln Elementary School | | Change Station

Elev 587 ft 45.07 °N, 83.43 °W | Updated 14 seconds ago

Mostly Cloudy
Mostly Cloudy
23.4 °F
Feels Like 23 °F
N
2.0
Wind Variable Wind from South
Gusts 2.5 mph

Today
High -- | Low -- °F
--% Chance of Precip.
Yesterday
High -- | Low -- °F
Precip. -- in
Pressure 30.34 in
Visibility 3.0 miles
Clouds Few 2400 ft
Mostly Cloudy 2800 ft
Overcast 3800 ft
Windchill 23 °F
Dew Point 15 °F
Humidity 70%
Rainfall 0.00 in
Snow Depth Not available.
8:01 AM 4:51 PM
Waxing Gibbous, 84% visible
SPECI KAPN 101412Z AUTO 26004KT 3SM -SN BR FEW024 BKN028 OVC038 M06/M08 A3034 RMK AO2 P0000 T10611083
Pressure 30.34 in
Visibility 3.0 miles
Clouds Few 2400 ft
Mostly Cloudy 2800 ft
Overcast 3800 ft
Windchill 23 °F
Dew Point 15 °F
Humidity 70%
Rainfall 0.00 in
Snow Depth Not available.
8:01 AM 4:51 PM
Waxing Gibbous, 84% visible
SPECI KAPN 101412Z AUTO 26004KT 3SM -SN BR FEW024 BKN028 OVC038 M06/M08 A3034 RMK AO2 P0000 T10611083

10-Day Weather Forecast

Almanac

Astronomy

Dec. 10, 2016 Rise Set
Actual Time
Civil Twilight
Nautical Twilight
Astronomical Twilight
Moon
Length of Visible Light
Length of Day
Tomorrow will be .
, % of the Moon is Illuminated

Today's Extremes

State Highs State Lows

Community

WunderPhotos

Upload Photos

1,956,549 photos uploaded!

WunderBlog® & News

Nearby

Air Quality

  Air Quality AQ Index Pollutant
Not available.

Snow Depth

Station Depth Elevation

Earthquake Activity

City Distance Mag. Time & Date
Minimum magnitude displayed is 2.5.

Coastal Water Temperatures

Place Temperature

Stations

Nearby Weather Stations

Station Location Temp. Windchill Dew Point Humidity Wind Precip. Elev Updated Type
                   

Watches & Warnings

There are currently no watches in effect.